Observation data for Olton on 02/14/2018      Previous  Date  Next       Current Mesonet Observations  Soil Data  Daily Summary Page  Observations in Plain Language
KONS 140600Z 19007KT 07/01 A3023 RMK A01 T00660008  RH  068%=      5-min Rain = 0
KONS 140605Z 19008KT 07/01 A3023 RMK A01 T00670008  RH  067%=      5-min Rain = 0
KONS 140610Z 19009KT 07/01 A3023 RMK A01 T00700009  RH  066%=      5-min Rain = 0
KONS 140615Z 19010KT 07/01 A3023 RMK A01 T00730009  RH  065%=      5-min Rain = 0
KONS 140620Z 19010KT 07/01 A3023 RMK A01 T00740009  RH  064%=      5-min Rain = 0
KONS 140625Z 19011KT 08/01 A3022 RMK A01 T00750009  RH  064%=      5-min Rain = 0
KONS 140630Z 19010KT 08/01 A3022 RMK A01 T00760009  RH  063%=      5-min Rain = 0
KONS 140635Z 19010KT 08/01 A3022 RMK A01 T00750009  RH  063%=      5-min Rain = 0
KONS 140640Z 20011KT 08/01 A3022 RMK A01 T00750009  RH  064%=      5-min Rain = 0
KONS 140645Z 20012KT 08/01 A3022 RMK A01 T00750008  RH  063%=      5-min Rain = 0
KONS 140650Z 20011KT 08/01 A3022 RMK A01 T00750008  RH  063%=      5-min Rain = 0
KONS 140655Z 20011KT 07/01 A3022 RMK A01 T00740008  RH  064%=      5-min Rain = 0
KONS 140700Z 20010KT 07/01 A3021 RMK A01 T00730008  RH  064%=      5-min Rain = 0
KONS 140705Z 20010KT 07/01 A3021 RMK A01 T00720007  RH  064%=      5-min Rain = 0
KONS 140710Z 20010KT 07/01 A3021 RMK A01 T00740008  RH  063%=      5-min Rain = 0
KONS 140715Z 21009KT 08/01 A3021 RMK A01 T00750008  RH  063%=      5-min Rain = 0
KONS 140720Z 21008KT 08/01 A3021 RMK A01 T00750008  RH  063%=      5-min Rain = 0
KONS 140725Z 21010KT 08/01 A3021 RMK A01 T00750007  RH  063%=      5-min Rain = 0
KONS 140730Z 21010KT 08/01 A3021 RMK A01 T00760006  RH  062%=      5-min Rain = 0
KONS 140735Z 21009KT 08/01 A3021 RMK A01 T00760005  RH  062%=      5-min Rain = 0
KONS 140740Z 21009KT 08/01 A3021 RMK A01 T00760005  RH  061%=      5-min Rain = 0
KONS 140745Z 21009KT 08/00 A3022 RMK A01 T00750004  RH  061%=      5-min Rain = 0
KONS 140750Z 21010KT 08/00 A3021 RMK A01 T00780004  RH  060%=      5-min Rain = 0
KONS 140755Z 21011KT 08/00 A3021 RMK A01 T00800003  RH  059%=      5-min Rain = 0
KONS 140800Z 22012KT 08/00 A3022 RMK A01 T00810003  RH  058%=      5-min Rain = 0
KONS 140805Z 22011KT 08/00 A3021 RMK A01 T00810002  RH  058%=      5-min Rain = 0
KONS 140810Z 22011KT 08/00 A3021 RMK A01 T00810001  RH  058%=      5-min Rain = 0
KONS 140815Z 22011KT 08/00 A3021 RMK A01 T00800001  RH  058%=      5-min Rain = 0
KONS 140820Z 22010KT 08/00 A302 RMK A01 T007900-0  RH  058%=      5-min Rain = 0
KONS 140825Z 21011KT 08/M00 A302 RMK A01 T00761001  RH  059%=      5-min Rain = 0
KONS 140830Z 22011KT 07/M00 A302 RMK A01 T00741001  RH  060%=      5-min Rain = 0
KONS 140835Z 21010KT 07/M00 A302 RMK A01 T00721001  RH  060%=      5-min Rain = 0
KONS 140840Z 21009KT 07/M00 A302 RMK A01 T00701001  RH  061%=      5-min Rain = 0
KONS 140845Z 21009KT 07/M00 A3019 RMK A01 T00691002  RH  062%=      5-min Rain = 0
KONS 140850Z 22008KT 07/M00 A3019 RMK A01 T00681002  RH  062%=      5-min Rain = 0
KONS 140855Z 22008KT 07/M00 A3019 RMK A01 T00681002  RH  062%=      5-min Rain = 0
KONS 140900Z 24008KT 07/M00 A3019 RMK A01 T00661002  RH  062%=      5-min Rain = 0
KONS 140905Z 24008KT 06/M00 A3019 RMK A01 T00621004  RH  063%=      5-min Rain = 0
KONS 140910Z 23009KT 06/M00 A3019 RMK A01 T00591004  RH  065%=      5-min Rain = 0
KONS 140915Z 23008KT 06/M00 A3019 RMK A01 T00591004  RH  065%=      5-min Rain = 0
KONS 140920Z 26007KT 06/M01 A3019 RMK A01 T00581006  RH  064%=      5-min Rain = 0
KONS 140925Z 24009KT 06/M01 A3019 RMK A01 T00581005  RH  065%=      5-min Rain = 0
KONS 140930Z 25009KT 06/M00 A3019 RMK A01 T00601004  RH  064%=      5-min Rain = 0
KONS 140935Z 26007KT 06/M00 A3019 RMK A01 T00611004  RH  064%=      5-min Rain = 0
KONS 140940Z 26008KT 06/M01 A3019 RMK A01 T00631005  RH  062%=      5-min Rain = 0
KONS 140945Z 24008KT 06/M01 A3018 RMK A01 T00641006  RH  062%=      5-min Rain = 0
KONS 140950Z 23007KT 06/M01 A3018 RMK A01 T00621006  RH  062%=      5-min Rain = 0
KONS 140955Z 24007KT 06/M01 A3018 RMK A01 T00581007  RH  064%=      5-min Rain = 0
KONS 141000Z 25007KT 05/M01 A3018 RMK A01 T00531009  RH  065%=      5-min Rain = 0
KONS 141005Z 25008KT 05/M01 A3018 RMK A01 T00531009  RH  065%=      5-min Rain = 0
KONS 141010Z 23007KT 05/M01 A3019 RMK A01 T00521009  RH  065%=      5-min Rain = 0
KONS 141015Z 23007KT 05/M01 A3018 RMK A01 T00491009  RH  067%=      5-min Rain = 0
KONS 141020Z 24007KT 05/M01 A3018 RMK A01 T00491010  RH  067%=      5-min Rain = 0
KONS 141025Z 23007KT 05/M01 A3018 RMK A01 T00471012  RH  067%=      5-min Rain = 0
KONS 141030Z 22007KT 04/M01 A3018 RMK A01 T00431011  RH  069%=      5-min Rain = 0
KONS 141035Z 22008KT 04/M01 A3018 RMK A01 T00431012  RH  069%=      5-min Rain = 0
KONS 141040Z 22009KT 04/M01 A3018 RMK A01 T00441012  RH  068%=      5-min Rain = 0
KONS 141045Z 22008KT 04/M01 A3018 RMK A01 T00421012  RH  068%=      5-min Rain = 0
KONS 141050Z 22008KT 04/M01 A3019 RMK A01 T00391013  RH  069%=      5-min Rain = 0
KONS 141055Z 22008KT 04/M01 A3019 RMK A01 T00381014  RH  070%=      5-min Rain = 0
KONS 141100Z 22008KT 03/M02 A3019 RMK A01 T00341016  RH  071%=      5-min Rain = 0
KONS 141105Z 21008KT 03/M02 A3018 RMK A01 T00311017  RH  072%=      5-min Rain = 0
KONS 141110Z 21007KT 03/M02 A3019 RMK A01 T00281019  RH  072%=      5-min Rain = 0
KONS 141115Z 22007KT 02/M02 A3019 RMK A01 T00241019  RH  074%=      5-min Rain = 0
KONS 141120Z 22009KT 02/M02 A3019 RMK A01 T00241019  RH  074%=      5-min Rain = 0
KONS 141125Z 22008KT 03/M02 A3019 RMK A01 T00261015  RH  075%=      5-min Rain = 0
KONS 141130Z 22008KT 03/M01 A3019 RMK A01 T00311013  RH  073%=      5-min Rain = 0
KONS 141135Z 22008KT 03/M01 A3018 RMK A01 T00341014  RH  072%=      5-min Rain = 0
KONS 141140Z 21010KT 03/M01 A3018 RMK A01 T00331014  RH  072%=      5-min Rain = 0
KONS 141145Z 20010KT 03/M01 A3019 RMK A01 T00331014  RH  072%=      5-min Rain = 0
KONS 141150Z 21009KT 04/M01 A3019 RMK A01 T00351014  RH  071%=      5-min Rain = 0
KONS 141155Z 22008KT 04/M01 A3019 RMK A01 T00391014  RH  069%=      5-min Rain = 0
KONS 141200Z 23007KT 04/M02 A3019 RMK A01 T00371016  RH  069%=      5-min Rain = 0
KONS 141205Z 22008KT 04/M02 A3019 RMK A01 T00351016  RH  070%=      5-min Rain = 0
KONS 141210Z 22008KT 03/M02 A302 RMK A01 T00341016  RH  070%=      5-min Rain = 0
KONS 141215Z 22008KT 03/M02 A302 RMK A01 T00331017  RH  070%=      5-min Rain = 0
KONS 141220Z 21009KT 03/M02 A3019 RMK A01 T00321017  RH  071%=      5-min Rain = 0
KONS 141225Z 21008KT 03/M02 A302 RMK A01 T00331017  RH  071%=      5-min Rain = 0
KONS 141230Z 22007KT 04/M02 A3019 RMK A01 T00351017  RH  070%=      5-min Rain = 0
KONS 141235Z 21008KT 03/M02 A3019 RMK A01 T00341017  RH  070%=      5-min Rain = 0
KONS 141240Z 21008KT 03/M02 A3019 RMK A01 T00341017  RH  070%=      5-min Rain = 0
KONS 141245Z 20008KT 03/M02 A3018 RMK A01 T00321017  RH  071%=      5-min Rain = 0
KONS 141250Z 20008KT 03/M02 A3018 RMK A01 T00291019  RH  072%=      5-min Rain = 0
KONS 141255Z 19009KT 03/M02 A3018 RMK A01 T00261020  RH  072%=      5-min Rain = 0
KONS 141300Z 19009KT 02/M02 A3018 RMK A01 T00231021  RH  074%=      5-min Rain = 0
KONS 141305Z 19010KT 02/M02 A3019 RMK A01 T00221021  RH  074%=      5-min Rain = 0
KONS 141310Z 20010KT 02/M02 A3019 RMK A01 T00231021  RH  074%=      5-min Rain = 0
KONS 141315Z 20010KT 02/M02 A3018 RMK A01 T00231021  RH  073%=      5-min Rain = 0
KONS 141320Z 20010KT 02/M02 A3018 RMK A01 T00221022  RH  073%=      5-min Rain = 0
KONS 141325Z 20010KT 02/M02 A3018 RMK A01 T00211022  RH  074%=      5-min Rain = 0
KONS 141330Z 21009KT 02/M02 A3019 RMK A01 T00231022  RH  073%=      5-min Rain = 0
KONS 141335Z 22009KT 02/M02 A3019 RMK A01 T00231023  RH  072%=      5-min Rain = 0
KONS 141340Z 21009KT 02/M02 A3019 RMK A01 T00221023  RH  073%=      5-min Rain = 0
KONS 141345Z 21009KT 02/M02 A3019 RMK A01 T00241022  RH  073%=      5-min Rain = 0
KONS 141350Z 21009KT 03/M02 A3019 RMK A01 T00261021  RH  071%=      5-min Rain = 0
KONS 141355Z 20009KT 03/M02 A3018 RMK A01 T00251022  RH  072%=      5-min Rain = 0
KONS 141400Z 21009KT 02/M02 A3019 RMK A01 T00241022  RH  073%=      5-min Rain = 0
KONS 141405Z 20009KT 03/M02 A3018 RMK A01 T00251021  RH  072%=      5-min Rain = 0
KONS 141410Z 20008KT 02/M02 A3018 RMK A01 T00241022  RH  073%=      5-min Rain = 0
KONS 141415Z 20008KT 02/M02 A3018 RMK A01 T00221022  RH  073%=      5-min Rain = 0
KONS 141420Z 21007KT 02/M02 A3018 RMK A01 T00231022  RH  073%=      5-min Rain = 0
KONS 141425Z 21007KT 03/M02 A3018 RMK A01 T00251020  RH  073%=      5-min Rain = 0
KONS 141430Z 21007KT 03/M02 A3018 RMK A01 T00271019  RH  072%=      5-min Rain = 0
KONS 141435Z 21007KT 03/M02 A3019 RMK A01 T00301017  RH  072%=      5-min Rain = 0
KONS 141440Z 19007KT 03/M02 A3019 RMK A01 T00331016  RH  071%=      5-min Rain = 0
KONS 141445Z 20006KT 04/M01 A3019 RMK A01 T00351013  RH  071%=      5-min Rain = 0
KONS 141450Z 20006KT 04/M01 A3019 RMK A01 T00381013  RH  070%=      5-min Rain = 0
KONS 141455Z 20006KT 04/M01 A3019 RMK A01 T00421013  RH  068%=      5-min Rain = 0
KONS 141500Z 20006KT 05/M01 A3019 RMK A01 T00471012  RH  066%=      5-min Rain = 0
KONS 141505Z 20007KT 05/M01 A302 RMK A01 T00501013  RH  065%=      5-min Rain = 0
KONS 141510Z 20006KT 05/M01 A302 RMK A01 T00531013  RH  063%=      5-min Rain = 0
KONS 141515Z 21007KT 06/M01 A302 RMK A01 T00571014  RH  061%=      5-min Rain = 0
KONS 141520Z 22006KT 06/M01 A302 RMK A01 T00611013  RH  060%=      5-min Rain = 0
KONS 141525Z 22006KT 07/M01 A302 RMK A01 T00651012  RH  058%=      5-min Rain = 0
KONS 141530Z 24007KT 07/M01 A302 RMK A01 T00681011  RH  058%=      5-min Rain = 0
KONS 141535Z 25007KT 08/M01 A302 RMK A01 T00751011  RH  055%=      5-min Rain = 0
KONS 141540Z 25007KT 08/M01 A302 RMK A01 T00821011  RH  052%=      5-min Rain = 0
KONS 141545Z 25007KT 09/M01 A3019 RMK A01 T00891011  RH  050%=      5-min Rain = 0
KONS 141550Z 25008KT 09/M01 A3019 RMK A01 T00941012  RH  048%=      5-min Rain = 0
KONS 141555Z 25008KT 10/M01 A302 RMK A01 T00961012  RH  047%=      5-min Rain = 0
KONS 141600Z 24007KT 10/M01 A302 RMK A01 T01021010  RH  046%=      5-min Rain = 0
KONS 141605Z 24008KT 11/M01 A302 RMK A01 T01091011  RH  044%=      5-min Rain = 0
KONS 141610Z 24007KT 12/M01 A3019 RMK A01 T01161011  RH  042%=      5-min Rain = 0
KONS 141615Z 24008KT 12/M01 A3019 RMK A01 T01211012  RH  040%=      5-min Rain = 0
KONS 141620Z 24009KT 13/M01 A3019 RMK A01 T01261014  RH  038%=      5-min Rain = 0
KONS 141625Z 23008KT 13/M01 A3019 RMK A01 T01301013  RH  038%=      5-min Rain = 0
KONS 141630Z 25006KT 13/M01 A3019 RMK A01 T01331008  RH  038%=      5-min Rain = 0
KONS 141635Z 22007KT 14/M01 A3019 RMK A01 T01431009  RH  035%=      5-min Rain = 0
KONS 141640Z 22010KT 16/M01 A3019 RMK A01 T01571011  RH  032%=      5-min Rain = 0
KONS 141645Z 22011KT 17/M01 A3019 RMK A01 T01671014  RH  029%=      5-min Rain = 0
KONS 141650Z 22011KT 18/M01 A3018 RMK A01 T01771012  RH  028%=      5-min Rain = 0
KONS 141655Z 21012KT 18/M02 A3018 RMK A01 T01821017  RH  026%=      5-min Rain = 0
KONS 141700Z 22011KT 19/M02 A3018 RMK A01 T01861019  RH  025%=      5-min Rain = 0
KONS 141705Z 22013KT 19/M02 A3018 RMK A01 T01921021  RH  024%=      5-min Rain = 0
KONS 141710Z 22013KT 19/M02 A3018 RMK A01 T01941024  RH  023%=      5-min Rain = 0
KONS 141715Z 22012KT 20/M02 A3018 RMK A01 T01981023  RH  023%=      5-min Rain = 0
KONS 141720Z 22011KT 20/M02 A3017 RMK A01 T01991023  RH  022%=      5-min Rain = 0
KONS 141725Z 21012KT 20/M02 A3017 RMK A01 T02011023  RH  022%=      5-min Rain = 0
KONS 141730Z 21012KT 20/M02 A3016 RMK A01 T02031023  RH  022%=      5-min Rain = 0
KONS 141735Z 21012G18KT 21/M02 A3016 RMK A01 T02061023  RH  022%=      5-min Rain = 0
KONS 141740Z 22015KT 21/M03 A3016 RMK A01 T02081030  RH  020%=      5-min Rain = 0
KONS 141745Z 22015KT 21/M03 A3016 RMK A01 T02101031  RH  020%=      5-min Rain = 0
KONS 141750Z 21016KT 21/M03 A3016 RMK A01 T02121030  RH  020%=      5-min Rain = 0
KONS 141755Z 21013KT 22/M03 A3016 RMK A01 T02151032  RH  019%=      5-min Rain = 0
KONS 141800Z 21014G21KT 22/M03 A3015 RMK A01 T02181033  RH  019%=      5-min Rain = 0
KONS 141805Z 22015KT 22/M04 A3015 RMK A01 T02221040  RH  017%=      5-min Rain = 0
KONS 141810Z 22014KT 23/M05 A3014 RMK A01 T02281045  RH  016%=      5-min Rain = 0
KONS 141815Z 21013KT 23/M05 A3014 RMK A01 T02321048  RH  015%=      5-min Rain = 0
KONS 141820Z 22012KT 23/M05 A3014 RMK A01 T02321053  RH  015%=      5-min Rain = 0
KONS 141825Z 22014G21KT 23/M06 A3013 RMK A01 T02341055  RH  014%=      5-min Rain = 0
KONS 141830Z 22015G20KT 24/M06 A3013 RMK A01 T02381060  RH  013%=      5-min Rain = 0
KONS 141835Z 22016G21KT 24/M06 A3013 RMK A01 T02371060  RH  014%=      5-min Rain = 0
KONS 141840Z 22017G25KT 24/M06 A3012 RMK A01 T02381061  RH  013%=      5-min Rain = 0
KONS 141845Z 22017KT 24/M06 A3012 RMK A01 T02401063  RH  013%=      5-min Rain = 0
KONS 141850Z 21017G23KT 24/M06 A3011 RMK A01 T02401064  RH  013%=      5-min Rain = 0
KONS 141855Z 23018G23KT 24/M07 A3011 RMK A01 T02421065  RH  013%=      5-min Rain = 0
KONS 141900Z 22019KT 24/M07 A3011 RMK A01 T02411070  RH  012%=      5-min Rain = 0
KONS 141905Z 22017G23KT 24/M07 A3011 RMK A01 T02441066  RH  012%=      5-min Rain = 0
KONS 141910Z 22021G26KT 24/M07 A301 RMK A01 T02441070  RH  012%=      5-min Rain = 0
KONS 141915Z 24019G25KT 25/M07 A301 RMK A01 T02471070  RH  012%=      5-min Rain = 0
KONS 141920Z 24017G23KT 25/M07 A301 RMK A01 T02471069  RH  012%=      5-min Rain = 0
KONS 141925Z 23017G24KT 25/M07 A3009 RMK A01 T02471069  RH  012%=      5-min Rain = 0
KONS 141930Z 22021G28KT 25/M07 A3009 RMK A01 T02501071  RH  011%=      5-min Rain = 0
KONS 141935Z 22020G27KT 25/M07 A3009 RMK A01 T02481074  RH  011%=      5-min Rain = 0
KONS 141940Z 22019G24KT 25/M07 A3008 RMK A01 T02501071  RH  012%=      5-min Rain = 0
KONS 141945Z 22019G25KT 26/M07 A3008 RMK A01 T02551070  RH  011%=      5-min Rain = 0
KONS 141950Z 22019G25KT 26/M07 A3007 RMK A01 T02561073  RH  011%=      5-min Rain = 0
KONS 141955Z 22022G29KT 26/M08 A3007 RMK A01 T02571077  RH  011%=      5-min Rain = 0
KONS 142000Z 22022G27KT 26/M07 A3006 RMK A01 T02591074  RH  011%=      5-min Rain = 0
KONS 142005Z 23020G27KT 26/M07 A3006 RMK A01 T02601071  RH  011%=      5-min Rain = 0
KONS 142010Z 23024G30KT 26/M07 A3006 RMK A01 T02591071  RH  011%=      5-min Rain = 0
KONS 142015Z 24023G31KT 26/M07 A3005 RMK A01 T02611070  RH  011%=      5-min Rain = 0
KONS 142020Z 23020G28KT 26/M07 A3005 RMK A01 T02601070  RH  011%=      5-min Rain = 0
KONS 142025Z 22021G28KT 26/M07 A3005 RMK A01 T02601066  RH  011%=      5-min Rain = 0
KONS 142030Z 23020G26KT 26/M07 A3005 RMK A01 T02621065  RH  011%=      5-min Rain = 0
KONS 142035Z 24021G28KT 26/M06 A3004 RMK A01 T02641061  RH  011%=      5-min Rain = 0
KONS 142040Z 22020G26KT 26/M06 A3004 RMK A01 T02631060  RH  012%=      5-min Rain = 0
KONS 142045Z 22023G28KT 26/M06 A3003 RMK A01 T02621058  RH  012%=      5-min Rain = 0
KONS 142050Z 22024G29KT 26/M06 A3003 RMK A01 T02611057  RH  012%=      5-min Rain = 0
KONS 142055Z 23021G28KT 26/M06 A3003 RMK A01 T02621057  RH  012%=      5-min Rain = 0
KONS 142100Z 23024G29KT 26/M06 A3002 RMK A01 T02621056  RH  012%=      5-min Rain = 0
KONS 142105Z 24023G28KT 26/M06 A3002 RMK A01 T02621056  RH  012%=      5-min Rain = 0
KONS 142110Z 23023G28KT 26/M05 A3002 RMK A01 T02641054  RH  012%=      5-min Rain = 0
KONS 142115Z 23023G30KT 26/M05 A3002 RMK A01 T02621052  RH  012%=      5-min Rain = 0
KONS 142120Z 22024G30KT 26/M05 A3002 RMK A01 T02591049  RH  013%=      5-min Rain = 0
KONS 142125Z 23021G27KT 26/M05 A3001 RMK A01 T02621046  RH  013%=      5-min Rain = 0
KONS 142130Z 23021G28KT 27/M04 A3001 RMK A01 T02681036  RH  013%=      5-min Rain = 0
KONS 142135Z 23022G28KT 27/M04 A3001 RMK A01 T02681037  RH  013%=      5-min Rain = 0
KONS 142140Z 23022G29KT 27/M03 A30 RMK A01 T02691030  RH  014%=      5-min Rain = 0
KONS 142145Z 23024G30KT 27/M03 A30 RMK A01 T02691027  RH  014%=      5-min Rain = 0
KONS 142150Z 23025G30KT 27/M03 A30 RMK A01 T02671028  RH  014%=      5-min Rain = 0
KONS 142155Z 23027KT 27/M03 A30 RMK A01 T02671028  RH  014%=      5-min Rain = 0
KONS 142200Z 22025G34KT 26/M03 A30 RMK A01 T02641027  RH  015%=      5-min Rain = 0
KONS 142205Z 24024G30KT 26/M03 A30 RMK A01 T02621028  RH  015%=      5-min Rain = 0
KONS 142210Z 23024G31KT 26/M03 A2999 RMK A01 T02631028  RH  015%=      5-min Rain = 0
KONS 142215Z 23025G30KT 26/M03 A2999 RMK A01 T02611025  RH  015%=      5-min Rain = 0
KONS 142220Z 24025G31KT 26/M02 A2999 RMK A01 T02581023  RH  016%=      5-min Rain = 0
KONS 142225Z 23023G31KT 26/M02 A2999 RMK A01 T02551021  RH  016%=      5-min Rain = 0
KONS 142230Z 23020G25KT 26/M02 A2999 RMK A01 T02571015  RH  017%=      5-min Rain = 0
KONS 142235Z 23023G30KT 26/M01 A2999 RMK A01 T02601014  RH  017%=      5-min Rain = 0
KONS 142240Z 23022G30KT 26/M02 A2999 RMK A01 T02631016  RH  016%=      5-min Rain = 0
KONS 142245Z 23024G32KT 26/M02 A2999 RMK A01 T02581021  RH  016%=      5-min Rain = 0
KONS 142250Z 24025G31KT 25/M02 A2998 RMK A01 T02541017  RH  017%=      5-min Rain = 0
KONS 142255Z 23022G31KT 25/M01 A2999 RMK A01 T02531013  RH  017%=      5-min Rain = 0
KONS 142300Z 23021G28KT 26/M02 A2998 RMK A01 T02551018  RH  017%=      5-min Rain = 0
KONS 142305Z 23018G23KT 26/M02 A2998 RMK A01 T02561016  RH  017%=      5-min Rain = 0
KONS 142310Z 23021G28KT 26/M01 A2998 RMK A01 T02561012  RH  017%=      5-min Rain = 0
KONS 142315Z 23020G26KT 25/M01 A2998 RMK A01 T02541008  RH  018%=      5-min Rain = 0
KONS 142320Z 23023G28KT 25/M01 A2998 RMK A01 T02521014  RH  017%=      5-min Rain = 0
KONS 142325Z 23022G29KT 25/M02 A2998 RMK A01 T02491017  RH  017%=      5-min Rain = 0
KONS 142330Z 23022G29KT 25/M02 A2998 RMK A01 T02501021  RH  017%=      5-min Rain = 0
KONS 142335Z 22022G29KT 25/M02 A2998 RMK A01 T02501023  RH  017%=      5-min Rain = 0
KONS 142340Z 23021G26KT 25/M03 A2998 RMK A01 T02461025  RH  017%=      5-min Rain = 0
KONS 142345Z 22019G26KT 24/M03 A2998 RMK A01 T02431027  RH  017%=      5-min Rain = 0
KONS 142350Z 22018G25KT 24/M03 A2998 RMK A01 T02401031  RH  016%=      5-min Rain = 0
KONS 142355Z 21020KT 24/M04 A2998 RMK A01 T02401035  RH  016%=      5-min Rain = 0
KONS 150000Z 22019KT 24/M04 A2998 RMK A01 T02381036  RH  016%=      5-min Rain = 0
KONS 150005Z 22018G23KT 24/M04 A2998 RMK A01 T02371035  RH  016%=      5-min Rain = 0
KONS 150010Z 21019KT 24/M04 A2998 RMK A01 T02351035  RH  017%=      5-min Rain = 0
KONS 150015Z 21018G23KT 23/M03 A2998 RMK A01 T02311033  RH  017%=      5-min Rain = 0
KONS 150020Z 21018KT 23/M03 A2998 RMK A01 T02281033  RH  017%=      5-min Rain = 0
KONS 150025Z 21018G24KT 23/M03 A2998 RMK A01 T02261030  RH  018%=      5-min Rain = 0
KONS 150030Z 22017G24KT 22/M03 A2998 RMK A01 T02231028  RH  019%=      5-min Rain = 0
KONS 150035Z 22016G21KT 22/M03 A2998 RMK A01 T02201027  RH  019%=      5-min Rain = 0
KONS 150040Z 22015KT 22/M02 A2998 RMK A01 T02171024  RH  020%=      5-min Rain = 0
KONS 150045Z 22014KT 21/M02 A2998 RMK A01 T02121024  RH  021%=      5-min Rain = 0
KONS 150050Z 22014KT 21/M02 A2999 RMK A01 T02091024  RH  021%=      5-min Rain = 0
KONS 150055Z 22013KT 21/M03 A2999 RMK A01 T02071026  RH  021%=      5-min Rain = 0
KONS 150100Z 22012KT 20/M03 A2998 RMK A01 T02021026  RH  022%=      5-min Rain = 0
KONS 150105Z 21012KT 20/M03 A2998 RMK A01 T01971026  RH  022%=      5-min Rain = 0
KONS 150110Z 21012KT 19/M03 A2999 RMK A01 T01941026  RH  023%=      5-min Rain = 0
KONS 150115Z 21012KT 19/M03 A2999 RMK A01 T01901027  RH  023%=      5-min Rain = 0
KONS 150120Z 21011KT 19/M03 A2999 RMK A01 T01871026  RH  024%=      5-min Rain = 0
KONS 150125Z 21010KT 18/M03 A2999 RMK A01 T01821027  RH  024%=      5-min Rain = 0
KONS 150130Z 21010KT 18/M03 A2998 RMK A01 T01791028  RH  025%=      5-min Rain = 0
KONS 150135Z 21011KT 18/M03 A2999 RMK A01 T01791029  RH  024%=      5-min Rain = 0
KONS 150140Z 21011KT 18/M03 A2999 RMK A01 T01801030  RH  024%=      5-min Rain = 0
KONS 150145Z 21011KT 18/M03 A2999 RMK A01 T01801031  RH  024%=      5-min Rain = 0
KONS 150150Z 21011KT 18/M03 A2999 RMK A01 T01791030  RH  024%=      5-min Rain = 0
KONS 150155Z 21012KT 18/M03 A2998 RMK A01 T01811030  RH  024%=      5-min Rain = 0
KONS 150200Z 21013KT 19/M03 A2999 RMK A01 T01851030  RH  023%=      5-min Rain = 0
KONS 150205Z 22012KT 19/M03 A2999 RMK A01 T01851029  RH  023%=      5-min Rain = 0
KONS 150210Z 22012KT 18/M03 A2999 RMK A01 T01831027  RH  024%=      5-min Rain = 0
KONS 150215Z 21012KT 18/M03 A2999 RMK A01 T01801026  RH  025%=      5-min Rain = 0
KONS 150220Z 21014G19KT 18/M03 A2999 RMK A01 T01811026  RH  025%=      5-min Rain = 0
KONS 150225Z 21016KT 19/M03 A2999 RMK A01 T01871025  RH  024%=      5-min Rain = 0
KONS 150230Z 21016KT 19/M02 A2999 RMK A01 T01901024  RH  024%=      5-min Rain = 0
KONS 150235Z 21015KT 19/M02 A30 RMK A01 T01901022  RH  024%=      5-min Rain = 0
KONS 150240Z 21016KT 19/M02 A30 RMK A01 T01931020  RH  024%=      5-min Rain = 0
KONS 150245Z 21016KT 20/M02 A30 RMK A01 T01951017  RH  024%=      5-min Rain = 0
KONS 150250Z 22016KT 20/M01 A30 RMK A01 T01971014  RH  024%=      5-min Rain = 0
KONS 150255Z 21015KT 20/M01 A30 RMK A01 T01971013  RH  025%=      5-min Rain = 0
KONS 150300Z 21013KT 19/M01 A30 RMK A01 T01931011  RH  026%=      5-min Rain = 0
KONS 150305Z 21013KT 19/M01 A30 RMK A01 T01891013  RH  026%=      5-min Rain = 0
KONS 150310Z 21014KT 19/M01 A30 RMK A01 T01881013  RH  026%=      5-min Rain = 0
KONS 150315Z 21015KT 19/M01 A3001 RMK A01 T01861013  RH  026%=      5-min Rain = 0
KONS 150320Z 22016KT 19/M01 A3001 RMK A01 T01881011  RH  026%=      5-min Rain = 0
KONS 150325Z 22016KT 19/M01 A30 RMK A01 T01901009  RH  026%=      5-min Rain = 0
KONS 150330Z 22015KT 19/M01 A3001 RMK A01 T01891009  RH  027%=      5-min Rain = 0
KONS 150335Z 22015KT 19/M01 A3001 RMK A01 T01891008  RH  027%=      5-min Rain = 0
KONS 150340Z 22015KT 19/M01 A3001 RMK A01 T01891008  RH  027%=      5-min Rain = 0
KONS 150345Z 22015KT 19/M01 A3001 RMK A01 T01901008  RH  027%=      5-min Rain = 0
KONS 150350Z 22015KT 19/M01 A3001 RMK A01 T01921008  RH  026%=      5-min Rain = 0
KONS 150355Z 23015KT 19/M01 A3001 RMK A01 T01931009  RH  026%=      5-min Rain = 0
KONS 150400Z 23016KT 20/M01 A3001 RMK A01 T01951009  RH  026%=      5-min Rain = 0
KONS 150405Z 24015KT 19/M01 A3001 RMK A01 T01931010  RH  026%=      5-min Rain = 0
KONS 150410Z 24014KT 19/M01 A3001 RMK A01 T01881009  RH  027%=      5-min Rain = 0
KONS 150415Z 23013KT 19/M01 A3001 RMK A01 T01851008  RH  027%=      5-min Rain = 0
KONS 150420Z 23012KT 18/M01 A3001 RMK A01 T01811008  RH  028%=      5-min Rain = 0
KONS 150425Z 21011KT 18/M01 A3001 RMK A01 T01771008  RH  029%=      5-min Rain = 0
KONS 150430Z 20011KT 17/M01 A3001 RMK A01 T01671006  RH  031%=      5-min Rain = 0
KONS 150435Z 20011KT 16/M01 A3001 RMK A01 T01581007  RH  033%=      5-min Rain = 0
KONS 150440Z 22010KT 16/M01 A3001 RMK A01 T01581009  RH  032%=      5-min Rain = 0
KONS 150445Z 22010KT 16/M01 A3001 RMK A01 T01591008  RH  032%=      5-min Rain = 0
KONS 150450Z 21010KT 16/M01 A3001 RMK A01 T01591006  RH  033%=      5-min Rain = 0
KONS 150455Z 22009KT 16/M01 A3001 RMK A01 T01581006  RH  033%=      5-min Rain = 0
KONS 150500Z 22010KT 16/M01 A3001 RMK A01 T01581006  RH  033%=      5-min Rain = 0
KONS 150505Z 21010KT 16/M01 A3001 RMK A01 T01571006  RH  033%=      5-min Rain = 0
KONS 150510Z 21010KT 16/M01 A3001 RMK A01 T01571006  RH  033%=      5-min Rain = 0
KONS 150515Z 21011KT 16/M01 A3001 RMK A01 T01581006  RH  033%=      5-min Rain = 0
KONS 150520Z 21011KT 16/M01 A3001 RMK A01 T01571006  RH  033%=      5-min Rain = 0
KONS 150525Z 21010KT 16/M01 A3001 RMK A01 T01571006  RH  033%=      5-min Rain = 0
KONS 150530Z 21010KT 16/M00 A3001 RMK A01 T01561004  RH  034%=      5-min Rain = 0
KONS 150535Z 20009KT 15/M00 A3001 RMK A01 T01511001  RH  036%=      5-min Rain = 0
KONS 150540Z 19010KT 15/00 A3002 RMK A01 T014500-0  RH  037%=      5-min Rain = 0
KONS 150545Z 19011KT 14/M00 A3002 RMK A01 T01441001  RH  037%=      5-min Rain = 0
KONS 150550Z 20011KT 15/M00 A3002 RMK A01 T01471003  RH  036%=      5-min Rain = 0
KONS 150555Z 21012KT 15/M00 A3002 RMK A01 T01521004  RH  035%=      5-min Rain = 0

Page generated in 0.0091 seconds.